Home > Products > Valid Products > TAF

000
FTUS45 KFGZ 022300
TAFPGA
TAF
KPGA 022323Z 0300/0324 VRB06KT P6SM FEW120=



000
FTUS45 KFGZ 022300
TAFINW
TAF
KINW 022323Z 0300/0324 22010G18KT P6SM SKC
     FM030200 VRB06KT P6SM SKC
     FM032200 22012G22KT P6SM SCT100=



000
FTUS45 KFGZ 022300
TAFFLG
TAF
KFLG 022323Z 0300/0324 21010G18KT P6SM SKC
     FM030200 00000KT P6SM SKC
     FM031700 22012G22KT P6SM FEW070=



000
FTUS45 KFGZ 021700
TAFINW
TAF
KINW 021720Z 0218/0318 VRB05KT P6SM SKC
     FM022000 22010G18KT P6SM SKC
     FM030200 22008KT P6SM SKC=



000
FTUS45 KFGZ 021700
TAFPGA
TAF
KPGA 021720Z 0218/0318 VRB05KT P6SM SKC=



000
FTUS45 KFGZ 021700
TAFFLG
TAF
KFLG 021720Z 0218/0318 21010G18KT P6SM SKC
     FM030200 VRB03KT P6SM SKC=



000
FTUS45 KFGZ 021100
TAFFLG
TAF
KFLG 021120Z 0212/0312 VRB03KT P6SM SKC
     FM021700 21010G18KT P6SM SKC
     FM030200 VRB03KT P6SM SKC=



000
FTUS45 KFGZ 021100
TAFINW
TAF
KINW 021120Z 0212/0312 15005KT P6SM SKC
     FM022000 22010G18KT P6SM SKC
     FM030200 22008KT P6SM SKC=



000
FTUS45 KFGZ 021100
TAFPGA
TAF
KPGA 021120Z 0212/0312 VRB05KT P6SM SKC
     FM021800 01005KT P6SM SKC
     FM030200 VRB05KT P6SM SKC=



000
FTUS45 KFGZ 020500
TAFFLG
TAF
KFLG 020524Z 0206/0306 VRB03KT P6SM SKC
     FM021700 21010G18KT P6SM SKC
     FM030200 VRB04KT P6SM SKC=



000
FTUS45 KFGZ 020500
TAFINW
TAF
KINW 020524Z 0206/0306 22009KT P6SM SKC
     FM020900 15005KT P6SM SKC
     FM022000 22010G18KT P6SM SKC
     FM030200 22008KT P6SM SKC=



000
FTUS45 KFGZ 020500
TAFPGA
TAF
KPGA 020524Z 0206/0306 VRB05KT P6SM SKC=



000
FTUS45 KFGZ 012300
TAFPGA
TAF
KPGA 012326Z 0200/0224 VRB05KT P6SM SKC=



000
FTUS45 KFGZ 012300
TAFFLG
TAF
KFLG 012326Z 0200/0224 22011KT P6SM FEW070
     FM020200 VRB03KT P6SM SKC
     FM021700 21010G18KT P6SM SKC=



000
FTUS45 KFGZ 012300
TAFINW
TAF
KINW 012326Z 0200/0224 23008KT P6SM SKC
     FM020200 VRB05KT P6SM SKC
     FM022000 22010G18KT P6SM SKC=



000
FTUS45 KFGZ 012000 AAA
TAFINW
TAF AMD
KINW 012022Z 0120/0218 23008KT P6SM SKC
     FM020200 VRB05KT P6SM SKC=



000
FTUS45 KFGZ 011700
TAFINW
TAF
KINW 011720Z 0118/0218 24012G20KT P6SM SKC
     FM020200 VRB05KT P6SM SKC=



000
FTUS45 KFGZ 011700
TAFPGA
TAF
KPGA 011720Z 0118/0218 VRB06KT P6SM SKC=



000
FTUS45 KFGZ 011700
TAFFLG
TAF
KFLG 011720Z 0118/0218 22010G18KT P6SM SKC
     FM020100 VRB04KT P6SM SKC=



000
FTUS45 KFGZ 011100
TAFFLG
TAF
KFLG 011120Z 0112/0212 VRB04KT P6SM SKC
     FM011800 22011G17KT P6SM SKC
     FM020100 24006KT P6SM SKC
     FM020400 VRB04KT P6SM SKC=



000
FTUS45 KFGZ 011100
TAFINW
TAF
KINW 011120Z 0112/0212 VRB05KT P6SM SKC
     FM011900 24011G21KT P6SM SKC
     FM020200 23008KT P6SM SKC
     FM021000 VRB05KT P6SM SKC=



000
FTUS45 KFGZ 011100
TAFPGA
TAF
KPGA 011120Z 0112/0212 VRB06KT P6SM SKC
     FM012300 35007KT P6SM SKC
     FM020100 VRB05KT P6SM SKC=



000
FTUS45 KFGZ 010500
TAFINW
TAF
KINW 010535Z 0106/0206 21008KT P6SM SKC
     FM010800 VRB05KT P6SM SKC
     FM011900 24011G21KT P6SM SKC
     FM020200 23008KT P6SM SKC=



000
FTUS45 KFGZ 010500
TAFFLG
TAF
KFLG 010535Z 0106/0206 VRB04KT P6SM SKC
     FM011800 22011G17KT P6SM SKC
     FM020100 24006KT P6SM SKC
     FM020400 VRB04KT P6SM SKC=



000
FTUS45 KFGZ 010500
TAFPGA
TAF
KPGA 010535Z 0106/0206 VRB06KT P6SM SKC
     FM012300 35007KT P6SM SKC
     FM020100 VRB05KT P6SM SKC=



000
FTUS45 KFGZ 312300
TAFPGA
TAF
KPGA 312325Z 0100/0124 27010G20KT P6SM SKC
     FM010300 VRB06KT P6SM SKC=



000
FTUS45 KFGZ 312300
TAFINW
TAF
KINW 312325Z 0100/0124 24017G27KT P6SM SKC
     FM010130 23011G20KT P6SM SKC
     FM010300 21009KT P6SM SKC
     FM010800 VRB05KT P6SM SKC
     FM011900 24011KT P6SM SKC=



000
FTUS45 KFGZ 312300
TAFFLG
TAF
KFLG 312325Z 0100/0124 24015G24KT P6SM SKC
      TEMPO 0101/0103 23009KT
     FM010300 VRB04KT P6SM SKC
     FM011800 22011G17KT P6SM SKC=



000
FTUS45 KFGZ 311700
TAFFLG
TAF
KFLG 311737Z 3118/0118 23020G30KT P6SM FEW250
     FM312300 23016G24KT P6SM SKC
     FM010200 22007KT P6SM SKC=



000
FTUS45 KFGZ 311700
TAFINW
TAF
KINW 311737Z 3118/0118 23020G30KT P6SM FEW250
     FM010000 23012G22KT P6SM SKC
     FM010300 22005KT P6SM SKC=



000
FTUS45 KFGZ 311700
TAFPGA
TAF
KPGA 311737Z 3118/0118 VRB06KT P6SM SKC
      TEMPO 3120/3122 26010G17KT
     FM312200 26010G18KT P6SM SKC
     FM010200 VRB05KT P6SM SKC=



000
FTUS45 KFGZ 311100
TAFINW
TAF
KINW 311123Z 3112/0112 22010KT P6SM SCT250
     FM311800 23020G30KT P6SM FEW250
     FM010000 23012G22KT P6SM SKC
     FM010300 22005KT P6SM SKC=



000
FTUS45 KFGZ 311100
TAFPGA
TAF
KPGA 311123Z 3112/0112 20005KT P6SM FEW250
     FM311800 26010G18KT P6SM SKC
     FM010200 VRB05KT P6SM SKC=



000
FTUS45 KFGZ 311100
TAFFLG
TAF
KFLG 311123Z 3112/0112 23008KT P6SM SCT250
     FM311600 23010G20KT P6SM FEW250
     FM311800 22018G30KT P6SM SKC
     FM312300 23016G24KT P6SM SKC
     FM010200 22007KT P6SM SKC=



000
FTUS45 KFGZ 310500
TAFFLG
TAF
KFLG 310520Z 3106/0106 22005KT P6SM SCT250
     FM311500 23010KT P6SM FEW250
     FM311700 22018G28KT P6SM SKC
     FM010200 22005KT P6SM SKC=



000
FTUS45 KFGZ 310500
TAFPGA
TAF
KPGA 310520Z 3106/0106 VRB05KT P6SM SCT250
     FM311800 24010G18KT P6SM SKC
     FM010200 VRB05KT P6SM SKC=



000
FTUS45 KFGZ 310500
TAFINW
TAF
KINW 310520Z 3106/0106 23007KT P6SM SCT250
     FM310900 16006KT P6SM FEW250
     FM311800 22018G28KT P6SM SKC
     FM010300 27010KT P6SM SKC=



    US Dept of Commerce
    National Oceanic and Atmospheric Administration
    National Weather Service
    1325 East West Highway
    Silver Spring, MD 20910
    Page Author: NWS Internet Services Team
Disclaimer
Information Quality
Credits
Glossary
Privacy Policy
Freedom of Information Act (FOIA)
About Us
Career Opportunities